sensor_id;sensor_type;location;lat;lon;timestamp;P1;durP1;ratioP1;P2;durP2;ratioP2
77991;SDS011;67180;43.534;-5.652;2023-03-21T00:01:25;12.48;;;7.38;;
77991;SDS011;67180;43.534;-5.652;2023-03-21T00:03:51;9.13;;;6.82;;
77991;SDS011;67180;43.534;-5.652;2023-03-21T00:06:17;12.85;;;7.38;;
77991;SDS011;67180;43.534;-5.652;2023-03-21T00:08:44;14.07;;;7.07;;
77991;SDS011;67180;43.534;-5.652;2023-03-21T00:11:10;9.80;;;6.55;;
77991;SDS011;67180;43.534;-5.652;2023-03-21T00:13:37;12.73;;;7.35;;
77991;SDS011;67180;43.534;-5.652;2023-03-21T00:16:14;13.07;;;7.72;;
77991;SDS011;67180;43.534;-5.652;2023-03-21T00:18:42;12.10;;;8.15;;
77991;SDS011;67180;43.534;-5.652;2023-03-21T00:21:11;9.98;;;6.97;;
77991;SDS011;67180;43.534;-5.652;2023-03-21T00:23:39;9.88;;;6.65;;
77991;SDS011;67180;43.534;-5.652;2023-03-21T00:26:06;9.98;;;7.30;;
77991;SDS011;67180;43.534;-5.652;2023-03-21T00:28:35;11.27;;;7.03;;
77991;SDS011;67180;43.534;-5.652;2023-03-21T00:31:02;10.48;;;6.55;;
77991;SDS011;67180;43.534;-5.652;2023-03-21T00:33:28;10.13;;;6.70;;
77991;SDS011;67180;43.534;-5.652;2023-03-21T00:35:55;11.40;;;7.03;;
77991;SDS011;67180;43.534;-5.652;2023-03-21T00:38:22;13.68;;;6.97;;
77991;SDS011;67180;43.534;-5.652;2023-03-21T00:40:49;9.38;;;6.00;;
77991;SDS011;67180;43.534;-5.652;2023-03-21T00:43:15;12.07;;;6.25;;
77991;SDS011;67180;43.534;-5.652;2023-03-21T00:45:43;10.10;;;6.28;;
77991;SDS011;67180;43.534;-5.652;2023-03-21T00:48:10;10.52;;;6.22;;
77991;SDS011;67180;43.534;-5.652;2023-03-21T00:50:37;7.85;;;5.60;;
77991;SDS011;67180;43.534;-5.652;2023-03-21T00:53:04;9.52;;;6.22;;
77991;SDS011;67180;43.534;-5.652;2023-03-21T00:55:33;9.05;;;6.20;;
77991;SDS011;67180;43.534;-5.652;2023-03-21T00:57:59;11.50;;;6.38;;
77991;SDS011;67180;43.534;-5.652;2023-03-21T01:00:27;10.52;;;6.43;;
77991;SDS011;67180;43.534;-5.652;2023-03-21T01:02:53;9.35;;;6.45;;
77991;SDS011;67180;43.534;-5.652;2023-03-21T01:05:22;7.90;;;5.82;;
77991;SDS011;67180;43.534;-5.652;2023-03-21T01:08:09;8.98;;;6.20;;
77991;SDS011;67180;43.534;-5.652;2023-03-21T01:10:38;8.23;;;5.75;;
77991;SDS011;67180;43.534;-5.652;2023-03-21T01:13:04;10.25;;;5.60;;
77991;SDS011;67180;43.534;-5.652;2023-03-21T01:15:31;8.25;;;5.82;;
77991;SDS011;67180;43.534;-5.652;2023-03-21T01:17:57;9.00;;;6.50;;
77991;SDS011;67180;43.534;-5.652;2023-03-21T01:20:23;8.27;;;5.30;;
77991;SDS011;67180;43.534;-5.652;2023-03-21T01:22:50;12.57;;;6.75;;
77991;SDS011;67180;43.534;-5.652;2023-03-21T01:25:16;13.90;;;7.05;;
77991;SDS011;67180;43.534;-5.652;2023-03-21T01:27:42;10.23;;;7.28;;
77991;SDS011;67180;43.534;-5.652;2023-03-21T01:30:09;10.52;;;6.68;;
77991;SDS011;67180;43.534;-5.652;2023-03-21T01:32:35;9.88;;;6.85;;
77991;SDS011;67180;43.534;-5.652;2023-03-21T01:35:01;12.43;;;7.22;;
77991;SDS011;67180;43.534;-5.652;2023-03-21T01:37:28;12.75;;;7.68;;
77991;SDS011;67180;43.534;-5.652;2023-03-21T01:39:54;10.15;;;7.97;;
77991;SDS011;67180;43.534;-5.652;2023-03-21T01:42:20;12.27;;;8.52;;
77991;SDS011;67180;43.534;-5.652;2023-03-21T01:44:52;18.10;;;10.07;;
77991;SDS011;67180;43.534;-5.652;2023-03-21T01:47:18;16.23;;;10.20;;
77991;SDS011;67180;43.534;-5.652;2023-03-21T01:49:47;14.52;;;10.27;;
77991;SDS011;67180;43.534;-5.652;2023-03-21T01:52:16;19.27;;;10.95;;
77991;SDS011;67180;43.534;-5.652;2023-03-21T01:54:43;15.15;;;10.80;;
77991;SDS011;67180;43.534;-5.652;2023-03-21T01:57:11;16.73;;;11.45;;
77991;SDS011;67180;43.534;-5.652;2023-03-21T01:59:40;16.38;;;11.95;;
77991;SDS011;67180;43.534;-5.652;2023-03-21T02:02:09;19.42;;;12.23;;
77991;SDS011;67180;43.534;-5.652;2023-03-21T02:04:36;19.15;;;13.00;;
77991;SDS011;67180;43.534;-5.652;2023-03-21T02:07:07;22.27;;;12.68;;
77991;SDS011;67180;43.534;-5.652;2023-03-21T02:09:35;19.48;;;12.27;;
77991;SDS011;67180;43.534;-5.652;2023-03-21T02:12:04;19.15;;;12.43;;
77991;SDS011;67180;43.534;-5.652;2023-03-21T02:14:33;17.40;;;12.65;;
77991;SDS011;67180;43.534;-5.652;2023-03-21T02:17:14;14.60;;;10.80;;
77991;SDS011;67180;43.534;-5.652;2023-03-21T02:19:49;14.82;;;9.98;;
77991;SDS011;67180;43.534;-5.652;2023-03-21T02:25:07;13.60;;;10.00;;
77991;SDS011;67180;43.534;-5.652;2023-03-21T02:27:46;13.30;;;9.93;;
77991;SDS011;67180;43.534;-5.652;2023-03-21T02:35:47;14.57;;;10.27;;
77991;SDS011;67180;43.534;-5.652;2023-03-21T02:38:17;16.23;;;11.18;;
77991;SDS011;67180;43.534;-5.652;2023-03-21T02:40:49;17.15;;;10.50;;
77991;SDS011;67180;43.534;-5.652;2023-03-21T02:43:23;15.48;;;10.30;;
77991;SDS011;67180;43.534;-5.652;2023-03-21T02:45:53;15.13;;;9.95;;
77991;SDS011;67180;43.534;-5.652;2023-03-21T02:48:24;13.43;;;9.70;;
77991;SDS011;67180;43.534;-5.652;2023-03-21T02:50:53;14.02;;;9.95;;
77991;SDS011;67180;43.534;-5.652;2023-03-21T02:53:21;13.57;;;9.45;;
77991;SDS011;67180;43.534;-5.652;2023-03-21T02:55:49;15.85;;;10.07;;
77991;SDS011;67180;43.534;-5.652;2023-03-21T02:58:18;14.27;;;10.07;;
77991;SDS011;67180;43.534;-5.652;2023-03-21T03:00:45;14.65;;;10.40;;
77991;SDS011;67180;43.534;-5.652;2023-03-21T03:03:12;21.20;;;11.18;;
77991;SDS011;67180;43.534;-5.652;2023-03-21T03:05:41;14.00;;;10.10;;
77991;SDS011;67180;43.534;-5.652;2023-03-21T03:13:37;18.90;;;10.10;;
77991;SDS011;67180;43.534;-5.652;2023-03-21T03:16:17;17.50;;;10.60;;
77991;SDS011;67180;43.534;-5.652;2023-03-21T03:18:49;15.68;;;10.82;;
77991;SDS011;67180;43.534;-5.652;2023-03-21T03:21:18;16.27;;;10.48;;
77991;SDS011;67180;43.534;-5.652;2023-03-21T03:23:50;19.23;;;11.73;;
77991;SDS011;67180;43.534;-5.652;2023-03-21T03:26:23;16.52;;;11.68;;
77991;SDS011;67180;43.534;-5.652;2023-03-21T03:28:52;20.77;;;12.05;;
77991;SDS011;67180;43.534;-5.652;2023-03-21T03:31:20;19.33;;;12.57;;
77991;SDS011;67180;43.534;-5.652;2023-03-21T03:33:50;18.27;;;13.07;;
77991;SDS011;67180;43.534;-5.652;2023-03-21T03:36:17;20.30;;;14.55;;
77991;SDS011;67180;43.534;-5.652;2023-03-21T03:38:46;20.67;;;13.88;;
77991;SDS011;67180;43.534;-5.652;2023-03-21T03:41:16;25.75;;;15.30;;
77991;SDS011;67180;43.534;-5.652;2023-03-21T03:43:45;23.33;;;15.33;;
77991;SDS011;67180;43.534;-5.652;2023-03-21T03:46:20;27.77;;;16.13;;
77991;SDS011;67180;43.534;-5.652;2023-03-21T03:48:51;29.35;;;17.08;;
77991;SDS011;67180;43.534;-5.652;2023-03-21T03:51:23;31.85;;;17.60;;
77991;SDS011;67180;43.534;-5.652;2023-03-21T03:56:27;29.05;;;17.58;;
77991;SDS011;67180;43.534;-5.652;2023-03-21T03:58:55;26.83;;;18.30;;
77991;SDS011;67180;43.534;-5.652;2023-03-21T04:01:21;26.00;;;17.15;;
77991;SDS011;67180;43.534;-5.652;2023-03-21T04:03:47;27.38;;;17.92;;
77991;SDS011;67180;43.534;-5.652;2023-03-21T04:06:14;26.25;;;17.27;;
77991;SDS011;67180;43.534;-5.652;2023-03-21T04:08:40;27.02;;;18.10;;
77991;SDS011;67180;43.534;-5.652;2023-03-21T04:11:07;25.65;;;16.98;;
77991;SDS011;67180;43.534;-5.652;2023-03-21T04:13:33;26.90;;;17.02;;
77991;SDS011;67180;43.534;-5.652;2023-03-21T04:16:00;26.35;;;17.23;;
77991;SDS011;67180;43.534;-5.652;2023-03-21T04:18:27;25.00;;;16.75;;
77991;SDS011;67180;43.534;-5.652;2023-03-21T04:20:53;28.52;;;17.58;;
77991;SDS011;67180;43.534;-5.652;2023-03-21T04:23:19;25.63;;;16.55;;
77991;SDS011;67180;43.534;-5.652;2023-03-21T04:25:45;25.77;;;16.85;;
77991;SDS011;67180;43.534;-5.652;2023-03-21T04:28:11;29.60;;;17.33;;
77991;SDS011;67180;43.534;-5.652;2023-03-21T04:30:38;34.47;;;17.70;;
77991;SDS011;67180;43.534;-5.652;2023-03-21T04:33:05;26.70;;;17.45;;
77991;SDS011;67180;43.534;-5.652;2023-03-21T04:35:31;25.92;;;17.52;;
77991;SDS011;67180;43.534;-5.652;2023-03-21T04:38:00;27.58;;;16.80;;
77991;SDS011;67180;43.534;-5.652;2023-03-21T04:40:27;24.17;;;15.77;;
77991;SDS011;67180;43.534;-5.652;2023-03-21T04:42:53;22.08;;;15.38;;
77991;SDS011;67180;43.534;-5.652;2023-03-21T04:45:19;23.08;;;15.52;;
77991;SDS011;67180;43.534;-5.652;2023-03-21T04:47:45;23.63;;;15.80;;
77991;SDS011;67180;43.534;-5.652;2023-03-21T04:50:11;23.75;;;15.75;;
77991;SDS011;67180;43.534;-5.652;2023-03-21T04:52:37;25.27;;;14.82;;
77991;SDS011;67180;43.534;-5.652;2023-03-21T04:55:04;22.70;;;14.85;;
77991;SDS011;67180;43.534;-5.652;2023-03-21T04:57:34;24.27;;;14.57;;
77991;SDS011;67180;43.534;-5.652;2023-03-21T05:00:02;29.05;;;16.10;;
77991;SDS011;67180;43.534;-5.652;2023-03-21T05:02:33;21.80;;;14.27;;
77991;SDS011;67180;43.534;-5.652;2023-03-21T05:04:59;23.33;;;15.27;;
77991;SDS011;67180;43.534;-5.652;2023-03-21T05:07:26;22.67;;;14.55;;
77991;SDS011;67180;43.534;-5.652;2023-03-21T05:09:52;20.40;;;12.52;;
77991;SDS011;67180;43.534;-5.652;2023-03-21T05:12:18;20.30;;;14.18;;
77991;SDS011;67180;43.534;-5.652;2023-03-21T05:14:44;19.40;;;12.43;;
77991;SDS011;67180;43.534;-5.652;2023-03-21T05:17:11;22.27;;;13.32;;
77991;SDS011;67180;43.534;-5.652;2023-03-21T05:19:39;19.17;;;11.48;;
77991;SDS011;67180;43.534;-5.652;2023-03-21T05:22:08;17.98;;;11.80;;
77991;SDS011;67180;43.534;-5.652;2023-03-21T05:24:35;19.77;;;12.75;;
77991;SDS011;67180;43.534;-5.652;2023-03-21T05:27:03;17.52;;;12.27;;
77991;SDS011;67180;43.534;-5.652;2023-03-21T05:29:30;17.50;;;11.52;;
77991;SDS011;67180;43.534;-5.652;2023-03-21T05:31:58;16.98;;;11.43;;
77991;SDS011;67180;43.534;-5.652;2023-03-21T05:34:24;13.75;;;9.40;;
77991;SDS011;67180;43.534;-5.652;2023-03-21T05:36:51;15.38;;;9.43;;
77991;SDS011;67180;43.534;-5.652;2023-03-21T05:39:17;15.45;;;10.05;;
77991;SDS011;67180;43.534;-5.652;2023-03-21T05:41:43;15.40;;;9.35;;
77991;SDS011;67180;43.534;-5.652;2023-03-21T05:44:09;13.55;;;8.43;;
77991;SDS011;67180;43.534;-5.652;2023-03-21T05:46:36;10.68;;;7.43;;
77991;SDS011;67180;43.534;-5.652;2023-03-21T05:49:02;10.70;;;7.40;;
77991;SDS011;67180;43.534;-5.652;2023-03-21T05:51:28;11.25;;;7.63;;
77991;SDS011;67180;43.534;-5.652;2023-03-21T05:53:54;10.88;;;7.10;;
77991;SDS011;67180;43.534;-5.652;2023-03-21T05:56:20;11.63;;;7.47;;
77991;SDS011;67180;43.534;-5.652;2023-03-21T05:58:47;12.35;;;7.22;;
77991;SDS011;67180;43.534;-5.652;2023-03-21T06:01:13;9.00;;;7.00;;
77991;SDS011;67180;43.534;-5.652;2023-03-21T06:03:39;10.18;;;7.10;;
77991;SDS011;67180;43.534;-5.652;2023-03-21T06:06:06;12.82;;;7.78;;
77991;SDS011;67180;43.534;-5.652;2023-03-21T06:08:32;10.90;;;6.78;;
77991;SDS011;67180;43.534;-5.652;2023-03-21T06:10:58;11.23;;;7.60;;
77991;SDS011;67180;43.534;-5.652;2023-03-21T06:13:24;11.07;;;7.63;;
77991;SDS011;67180;43.534;-5.652;2023-03-21T06:15:51;10.02;;;7.60;;
77991;SDS011;67180;43.534;-5.652;2023-03-21T06:18:17;9.93;;;7.30;;
77991;SDS011;67180;43.534;-5.652;2023-03-21T06:20:43;10.32;;;7.15;;
77991;SDS011;67180;43.534;-5.652;2023-03-21T06:23:09;11.85;;;7.85;;
77991;SDS011;67180;43.534;-5.652;2023-03-21T06:25:35;12.70;;;8.00;;
77991;SDS011;67180;43.534;-5.652;2023-03-21T06:28:02;14.93;;;9.27;;
77991;SDS011;67180;43.534;-5.652;2023-03-21T06:30:28;12.73;;;8.30;;
77991;SDS011;67180;43.534;-5.652;2023-03-21T06:32:54;10.40;;;8.40;;
77991;SDS011;67180;43.534;-5.652;2023-03-21T06:35:20;18.15;;;9.77;;
77991;SDS011;67180;43.534;-5.652;2023-03-21T06:37:47;15.77;;;9.50;;
77991;SDS011;67180;43.534;-5.652;2023-03-21T06:40:13;15.18;;;10.02;;
77991;SDS011;67180;43.534;-5.652;2023-03-21T06:42:40;13.65;;;8.90;;
77991;SDS011;67180;43.534;-5.652;2023-03-21T06:45:06;15.18;;;10.40;;
77991;SDS011;67180;43.534;-5.652;2023-03-21T06:47:32;15.10;;;10.73;;
77991;SDS011;67180;43.534;-5.652;2023-03-21T06:49:58;14.82;;;10.93;;
77991;SDS011;67180;43.534;-5.652;2023-03-21T06:52:24;16.33;;;10.65;;
77991;SDS011;67180;43.534;-5.652;2023-03-21T06:54:51;15.18;;;10.80;;
77991;SDS011;67180;43.534;-5.652;2023-03-21T06:57:17;15.18;;;10.57;;
77991;SDS011;67180;43.534;-5.652;2023-03-21T06:59:45;15.93;;;10.40;;
77991;SDS011;67180;43.534;-5.652;2023-03-21T07:02:12;16.58;;;9.98;;
77991;SDS011;67180;43.534;-5.652;2023-03-21T07:04:38;17.02;;;9.57;;
77991;SDS011;67180;43.534;-5.652;2023-03-21T07:07:04;13.73;;;9.18;;
77991;SDS011;67180;43.534;-5.652;2023-03-21T07:09:30;18.25;;;10.10;;
77991;SDS011;67180;43.534;-5.652;2023-03-21T07:11:57;15.93;;;9.57;;
77991;SDS011;67180;43.534;-5.652;2023-03-21T07:14:23;15.07;;;9.52;;
77991;SDS011;67180;43.534;-5.652;2023-03-21T07:16:49;14.73;;;9.63;;
77991;SDS011;67180;43.534;-5.652;2023-03-21T07:19:15;16.48;;;9.55;;
77991;SDS011;67180;43.534;-5.652;2023-03-21T07:21:42;15.52;;;9.60;;
77991;SDS011;67180;43.534;-5.652;2023-03-21T07:24:08;15.30;;;9.02;;
77991;SDS011;67180;43.534;-5.652;2023-03-21T07:26:34;14.20;;;9.40;;
77991;SDS011;67180;43.534;-5.652;2023-03-21T07:29:00;14.52;;;10.30;;
77991;SDS011;67180;43.534;-5.652;2023-03-21T07:31:27;18.05;;;9.30;;
77991;SDS011;67180;43.534;-5.652;2023-03-21T07:33:53;10.10;;;8.13;;
77991;SDS011;67180;43.534;-5.652;2023-03-21T07:36:19;12.80;;;7.43;;
77991;SDS011;67180;43.534;-5.652;2023-03-21T07:38:46;10.85;;;6.47;;
77991;SDS011;67180;43.534;-5.652;2023-03-21T07:41:12;14.23;;;8.75;;
77991;SDS011;67180;43.534;-5.652;2023-03-21T07:43:38;10.15;;;7.38;;
77991;SDS011;67180;43.534;-5.652;2023-03-21T07:46:05;13.30;;;9.30;;
77991;SDS011;67180;43.534;-5.652;2023-03-21T07:48:31;12.98;;;7.78;;
77991;SDS011;67180;43.534;-5.652;2023-03-21T07:50:57;11.90;;;7.43;;
77991;SDS011;67180;43.534;-5.652;2023-03-21T07:53:24;9.63;;;6.43;;
77991;SDS011;67180;43.534;-5.652;2023-03-21T07:55:51;13.73;;;6.20;;
77991;SDS011;67180;43.534;-5.652;2023-03-21T07:58:19;11.52;;;5.35;;
77991;SDS011;67180;43.534;-5.652;2023-03-21T08:00:45;8.40;;;4.90;;
77991;SDS011;67180;43.534;-5.652;2023-03-21T08:03:12;9.10;;;5.70;;
77991;SDS011;67180;43.534;-5.652;2023-03-21T08:05:39;12.75;;;6.40;;
77991;SDS011;67180;43.534;-5.652;2023-03-21T08:08:05;14.02;;;7.65;;
77991;SDS011;67180;43.534;-5.652;2023-03-21T08:10:32;13.23;;;7.22;;
77991;SDS011;67180;43.534;-5.652;2023-03-21T08:12:58;14.25;;;8.40;;
77991;SDS011;67180;43.534;-5.652;2023-03-21T08:15:27;12.98;;;7.85;;
77991;SDS011;67180;43.534;-5.652;2023-03-21T08:17:53;12.07;;;8.30;;
77991;SDS011;67180;43.534;-5.652;2023-03-21T08:20:20;10.52;;;7.32;;
77991;SDS011;67180;43.534;-5.652;2023-03-21T08:22:47;9.98;;;6.82;;
77991;SDS011;67180;43.534;-5.652;2023-03-21T08:25:16;12.05;;;7.50;;
77991;SDS011;67180;43.534;-5.652;2023-03-21T08:27:43;15.88;;;6.90;;
77991;SDS011;67180;43.534;-5.652;2023-03-21T08:30:10;12.27;;;6.60;;
77991;SDS011;67180;43.534;-5.652;2023-03-21T08:32:37;9.13;;;6.40;;
77991;SDS011;67180;43.534;-5.652;2023-03-21T08:35:05;10.88;;;5.72;;
77991;SDS011;67180;43.534;-5.652;2023-03-21T08:37:34;10.10;;;6.28;;
77991;SDS011;67180;43.534;-5.652;2023-03-21T08:40:01;10.43;;;5.80;;
77991;SDS011;67180;43.534;-5.652;2023-03-21T08:42:31;10.07;;;6.05;;
77991;SDS011;67180;43.534;-5.652;2023-03-21T08:44:57;10.55;;;5.63;;
77991;SDS011;67180;43.534;-5.652;2023-03-21T08:47:23;7.80;;;5.57;;
77991;SDS011;67180;43.534;-5.652;2023-03-21T08:49:49;8.65;;;5.63;;
77991;SDS011;67180;43.534;-5.652;2023-03-21T08:52:15;9.20;;;5.40;;
77991;SDS011;67180;43.534;-5.652;2023-03-21T08:54:42;13.93;;;5.18;;
77991;SDS011;67180;43.534;-5.652;2023-03-21T08:57:09;7.65;;;5.47;;
77991;SDS011;67180;43.534;-5.652;2023-03-21T08:59:36;10.10;;;5.75;;
77991;SDS011;67180;43.534;-5.652;2023-03-21T09:02:03;9.38;;;5.53;;
77991;SDS011;67180;43.534;-5.652;2023-03-21T09:04:30;10.43;;;5.70;;
77991;SDS011;67180;43.534;-5.652;2023-03-21T09:06:56;14.50;;;5.60;;
77991;SDS011;67180;43.534;-5.652;2023-03-21T09:09:26;12.32;;;7.38;;
77991;SDS011;67180;43.534;-5.652;2023-03-21T09:11:53;16.85;;;7.55;;
77991;SDS011;67180;43.534;-5.652;2023-03-21T09:14:19;12.90;;;6.78;;
77991;SDS011;67180;43.534;-5.652;2023-03-21T09:16:45;15.05;;;7.57;;
77991;SDS011;67180;43.534;-5.652;2023-03-21T09:19:11;10.85;;;7.00;;
77991;SDS011;67180;43.534;-5.652;2023-03-21T09:21:42;12.27;;;6.57;;
77991;SDS011;67180;43.534;-5.652;2023-03-21T09:24:11;11.15;;;6.85;;
77991;SDS011;67180;43.534;-5.652;2023-03-21T09:26:37;15.15;;;7.60;;
77991;SDS011;67180;43.534;-5.652;2023-03-21T09:29:03;18.50;;;7.78;;
77991;SDS011;67180;43.534;-5.652;2023-03-21T09:31:30;15.15;;;7.57;;
77991;SDS011;67180;43.534;-5.652;2023-03-21T09:33:58;12.65;;;6.35;;
77991;SDS011;67180;43.534;-5.652;2023-03-21T09:36:29;11.65;;;5.93;;
77991;SDS011;67180;43.534;-5.652;2023-03-21T09:39:07;12.70;;;6.60;;
77991;SDS011;67180;43.534;-5.652;2023-03-21T09:41:56;12.27;;;6.78;;
77991;SDS011;67180;43.534;-5.652;2023-03-21T09:47:14;9.40;;;6.53;;
77991;SDS011;67180;43.534;-5.652;2023-03-21T09:49:47;9.32;;;5.75;;
77991;SDS011;67180;43.534;-5.652;2023-03-21T09:52:18;10.55;;;5.70;;
77991;SDS011;67180;43.534;-5.652;2023-03-21T09:54:46;13.75;;;5.57;;
77991;SDS011;67180;43.534;-5.652;2023-03-21T09:57:29;11.55;;;5.68;;
77991;SDS011;67180;43.534;-5.652;2023-03-21T09:59:57;9.35;;;5.60;;
77991;SDS011;67180;43.534;-5.652;2023-03-21T10:02:33;12.23;;;5.57;;
77991;SDS011;67180;43.534;-5.652;2023-03-21T10:05:01;11.57;;;5.63;;
77991;SDS011;67180;43.534;-5.652;2023-03-21T10:07:35;9.00;;;4.72;;
77991;SDS011;67180;43.534;-5.652;2023-03-21T10:10:03;12.73;;;4.70;;
77991;SDS011;67180;43.534;-5.652;2023-03-21T10:12:33;11.32;;;4.78;;
77991;SDS011;67180;43.534;-5.652;2023-03-21T10:15:00;6.88;;;4.40;;
77991;SDS011;67180;43.534;-5.652;2023-03-21T10:17:32;8.93;;;4.53;;
77991;SDS011;67180;43.534;-5.652;2023-03-21T10:22:40;9.98;;;3.70;;
77991;SDS011;67180;43.534;-5.652;2023-03-21T10:25:07;12.02;;;3.53;;
77991;SDS011;67180;43.534;-5.652;2023-03-21T10:27:36;7.63;;;3.08;;
77991;SDS011;67180;43.534;-5.652;2023-03-21T10:30:04;8.63;;;4.13;;
77991;SDS011;67180;43.534;-5.652;2023-03-21T10:32:31;7.57;;;3.33;;
77991;SDS011;67180;43.534;-5.652;2023-03-21T10:34:58;7.18;;;2.92;;
77991;SDS011;67180;43.534;-5.652;2023-03-21T10:37:25;7.15;;;4.07;;
77991;SDS011;67180;43.534;-5.652;2023-03-21T10:39:52;5.55;;;2.95;;
77991;SDS011;67180;43.534;-5.652;2023-03-21T10:42:21;7.88;;;2.90;;
77991;SDS011;67180;43.534;-5.652;2023-03-21T10:44:49;6.22;;;2.85;;
77991;SDS011;67180;43.534;-5.652;2023-03-21T10:47:20;6.55;;;3.15;;
77991;SDS011;67180;43.534;-5.652;2023-03-21T10:49:47;7.18;;;3.00;;
77991;SDS011;67180;43.534;-5.652;2023-03-21T10:52:14;7.43;;;2.60;;
77991;SDS011;67180;43.534;-5.652;2023-03-21T10:54:42;5.95;;;2.60;;
77991;SDS011;67180;43.534;-5.652;2023-03-21T10:57:11;7.07;;;2.80;;
77991;SDS011;67180;43.534;-5.652;2023-03-21T10:59:40;7.25;;;2.63;;
77991;SDS011;67180;43.534;-5.652;2023-03-21T11:04:35;13.38;;;2.97;;
77991;SDS011;67180;43.534;-5.652;2023-03-21T11:07:02;4.80;;;2.78;;
77991;SDS011;67180;43.534;-5.652;2023-03-21T11:09:49;6.75;;;3.00;;
77991;SDS011;67180;43.534;-5.652;2023-03-21T11:14:59;6.35;;;3.08;;
77991;SDS011;67180;43.534;-5.652;2023-03-21T11:17:39;4.88;;;2.90;;
77991;SDS011;67180;43.534;-5.652;2023-03-21T11:20:05;9.43;;;3.10;;
77991;SDS011;67180;43.534;-5.652;2023-03-21T11:22:39;5.73;;;2.80;;
77991;SDS011;67180;43.534;-5.652;2023-03-21T11:25:07;7.10;;;3.25;;
77991;SDS011;67180;43.534;-5.652;2023-03-21T11:27:36;10.13;;;4.13;;
77991;SDS011;67180;43.534;-5.652;2023-03-21T11:30:17;8.13;;;3.20;;
77991;SDS011;67180;43.534;-5.652;2023-03-21T11:32:45;9.20;;;3.65;;
77991;SDS011;67180;43.534;-5.652;2023-03-21T11:35:18;6.25;;;3.50;;
77991;SDS011;67180;43.534;-5.652;2023-03-21T11:40:20;5.28;;;2.40;;
77991;SDS011;67180;43.534;-5.652;2023-03-21T11:42:49;5.30;;;2.75;;
77991;SDS011;67180;43.534;-5.652;2023-03-21T11:45:18;4.68;;;2.20;;
77991;SDS011;67180;43.534;-5.652;2023-03-21T11:47:45;5.80;;;2.37;;
77991;SDS011;67180;43.534;-5.652;2023-03-21T11:50:17;4.30;;;1.95;;
77991;SDS011;67180;43.534;-5.652;2023-03-21T11:55:35;6.18;;;2.25;;
77991;SDS011;67180;43.534;-5.652;2023-03-21T11:58:05;3.72;;;1.80;;
77991;SDS011;67180;43.534;-5.652;2023-03-21T12:00:38;5.45;;;1.60;;
77991;SDS011;67180;43.534;-5.652;2023-03-21T12:03:12;2.67;;;1.60;;
77991;SDS011;67180;43.534;-5.652;2023-03-21T12:05:57;5.03;;;1.70;;
77991;SDS011;67180;43.534;-5.652;2023-03-21T12:08:31;3.78;;;1.50;;
77991;SDS011;67180;43.534;-5.652;2023-03-21T12:16:39;2.63;;;1.40;;
77991;SDS011;67180;43.534;-5.652;2023-03-21T12:19:19;5.65;;;1.80;;
77991;SDS011;67180;43.534;-5.652;2023-03-21T12:24:30;6.80;;;1.77;;
77991;SDS011;67180;43.534;-5.652;2023-03-21T12:27:02;3.40;;;2.00;;
77991;SDS011;67180;43.534;-5.652;2023-03-21T12:32:24;4.18;;;1.50;;
77991;SDS011;67180;43.534;-5.652;2023-03-21T12:37:46;6.40;;;1.80;;
77991;SDS011;67180;43.534;-5.652;2023-03-21T12:40:23;5.38;;;1.70;;
77991;SDS011;67180;43.534;-5.652;2023-03-21T12:42:54;4.95;;;1.77;;
77991;SDS011;67180;43.534;-5.652;2023-03-21T12:45:23;4.68;;;1.75;;
77991;SDS011;67180;43.534;-5.652;2023-03-21T12:47:51;2.80;;;1.60;;
77991;SDS011;67180;43.534;-5.652;2023-03-21T12:50:22;4.47;;;1.60;;
77991;SDS011;67180;43.534;-5.652;2023-03-21T12:52:49;3.92;;;1.60;;
77991;SDS011;67180;43.534;-5.652;2023-03-21T12:55:19;2.60;;;1.67;;
77991;SDS011;67180;43.534;-5.652;2023-03-21T12:57:48;3.50;;;1.52;;
77991;SDS011;67180;43.534;-5.652;2023-03-21T13:00:21;5.25;;;2.08;;
77991;SDS011;67180;43.534;-5.652;2023-03-21T13:03:01;5.78;;;1.67;;
77991;SDS011;67180;43.534;-5.652;2023-03-21T13:05:29;5.38;;;1.90;;
77991;SDS011;67180;43.534;-5.652;2023-03-21T13:07:59;14.07;;;2.00;;
77991;SDS011;67180;43.534;-5.652;2023-03-21T13:10:29;4.93;;;1.70;;
77991;SDS011;67180;43.534;-5.652;2023-03-21T13:13:00;6.15;;;1.63;;
77991;SDS011;67180;43.534;-5.652;2023-03-21T13:15:49;8.90;;;1.85;;
77991;SDS011;67180;43.534;-5.652;2023-03-21T13:18:19;5.75;;;1.90;;
77991;SDS011;67180;43.534;-5.652;2023-03-21T13:20:50;3.35;;;1.77;;
77991;SDS011;67180;43.534;-5.652;2023-03-21T13:23:20;4.25;;;1.70;;
77991;SDS011;67180;43.534;-5.652;2023-03-21T13:25:47;4.07;;;1.75;;
77991;SDS011;67180;43.534;-5.652;2023-03-21T13:28:17;2.50;;;1.60;;
77991;SDS011;67180;43.534;-5.652;2023-03-21T13:30:44;3.30;;;1.80;;
77991;SDS011;67180;43.534;-5.652;2023-03-21T13:33:13;3.78;;;1.98;;
77991;SDS011;67180;43.534;-5.652;2023-03-21T13:35:42;4.10;;;1.83;;
77991;SDS011;67180;43.534;-5.652;2023-03-21T13:38:12;3.92;;;1.80;;
77991;SDS011;67180;43.534;-5.652;2023-03-21T13:40:42;2.20;;;1.60;;
77991;SDS011;67180;43.534;-5.652;2023-03-21T13:45:51;3.28;;;1.73;;
77991;SDS011;67180;43.534;-5.652;2023-03-21T13:50:59;4.18;;;2.05;;
77991;SDS011;67180;43.534;-5.652;2023-03-21T13:53:30;4.15;;;1.70;;
77991;SDS011;67180;43.534;-5.652;2023-03-21T13:55:57;2.72;;;1.70;;
77991;SDS011;67180;43.534;-5.652;2023-03-21T13:58:33;4.00;;;1.77;;
77991;SDS011;67180;43.534;-5.652;2023-03-21T14:03:40;3.28;;;1.58;;
77991;SDS011;67180;43.534;-5.652;2023-03-21T14:06:07;3.70;;;1.50;;
77991;SDS011;67180;43.534;-5.652;2023-03-21T14:08:34;4.05;;;1.33;;
77991;SDS011;67180;43.534;-5.652;2023-03-21T14:11:03;2.60;;;1.40;;
77991;SDS011;67180;43.534;-5.652;2023-03-21T14:13:30;4.77;;;1.40;;
77991;SDS011;67180;43.534;-5.652;2023-03-21T14:15:59;2.28;;;1.30;;
77991;SDS011;67180;43.534;-5.652;2023-03-21T14:18:26;3.92;;;1.50;;
77991;SDS011;67180;43.534;-5.652;2023-03-21T14:20:54;4.78;;;1.60;;
77991;SDS011;67180;43.534;-5.652;2023-03-21T14:23:21;4.57;;;1.50;;
77991;SDS011;67180;43.534;-5.652;2023-03-21T14:25:47;3.80;;;1.50;;
77991;SDS011;67180;43.534;-5.652;2023-03-21T14:28:16;3.30;;;1.50;;
77991;SDS011;67180;43.534;-5.652;2023-03-21T14:30:43;2.70;;;1.40;;
77991;SDS011;67180;43.534;-5.652;2023-03-21T14:33:24;3.97;;;1.55;;
77991;SDS011;67180;43.534;-5.652;2023-03-21T14:35:54;3.30;;;1.88;;
77991;SDS011;67180;43.534;-5.652;2023-03-21T14:38:22;4.47;;;1.83;;
77991;SDS011;67180;43.534;-5.652;2023-03-21T14:40:51;2.90;;;1.60;;
77991;SDS011;67180;43.534;-5.652;2023-03-21T14:43:18;3.92;;;1.65;;
77991;SDS011;67180;43.534;-5.652;2023-03-21T14:45:46;4.22;;;1.80;;
77991;SDS011;67180;43.534;-5.652;2023-03-21T14:48:14;3.78;;;1.80;;
77991;SDS011;67180;43.534;-5.652;2023-03-21T14:50:48;3.47;;;1.50;;
77991;SDS011;67180;43.534;-5.652;2023-03-21T14:53:18;3.17;;;1.90;;
77991;SDS011;67180;43.534;-5.652;2023-03-21T14:55:46;4.68;;;1.60;;
77991;SDS011;67180;43.534;-5.652;2023-03-21T14:58:12;3.58;;;1.80;;
77991;SDS011;67180;43.534;-5.652;2023-03-21T15:03:09;3.60;;;1.83;;
77991;SDS011;67180;43.534;-5.652;2023-03-21T15:05:37;4.55;;;1.60;;
77991;SDS011;67180;43.534;-5.652;2023-03-21T15:08:11;6.82;;;1.85;;
77991;SDS011;67180;43.534;-5.652;2023-03-21T15:10:39;6.05;;;1.92;;
77991;SDS011;67180;43.534;-5.652;2023-03-21T15:13:14;3.95;;;1.80;;
77991;SDS011;67180;43.534;-5.652;2023-03-21T15:15:41;3.90;;;1.90;;
77991;SDS011;67180;43.534;-5.652;2023-03-21T15:18:07;5.07;;;1.90;;
77991;SDS011;67180;43.534;-5.652;2023-03-21T15:20:35;6.03;;;1.80;;
77991;SDS011;67180;43.534;-5.652;2023-03-21T15:23:03;5.47;;;1.92;;
77991;SDS011;67180;43.534;-5.652;2023-03-21T15:25:32;3.95;;;1.83;;
77991;SDS011;67180;43.534;-5.652;2023-03-21T15:27:59;6.53;;;2.00;;